createdAt,value
2022-09-04T00:02:25.879Z,1.88
2022-09-04T00:05:20.245Z,2.10
2022-09-04T00:08:11.963Z,1.33
2022-09-04T00:11:04.786Z,2.67
2022-09-04T00:13:38.189Z,2.08
2022-09-04T00:16:17.134Z,2.75
2022-09-04T00:18:57.137Z,2.35
2022-09-04T00:21:34.833Z,2.38
2022-09-04T00:24:25.457Z,1.55
2022-09-04T00:27:16.219Z,3.17
2022-09-04T00:29:49.906Z,2.83
2022-09-04T00:32:34.844Z,4.00
2022-09-04T00:35:15.275Z,2.60
2022-09-04T00:38:01.397Z,2.03
2022-09-04T00:40:46.903Z,1.85
2022-09-04T00:43:52.556Z,1.55
2022-09-04T00:46:41.637Z,1.35
2022-09-04T00:49:41.976Z,1.80
2022-09-04T00:52:45.742Z,1.73
2022-09-04T00:55:36.623Z,2.78
2022-09-04T00:58:26.691Z,2.78
2022-09-04T01:00:57.545Z,2.47
2022-09-04T01:03:51.740Z,2.78
2022-09-04T01:06:30.047Z,2.53
2022-09-04T01:09:24.726Z,3.92
2022-09-04T01:11:59.247Z,1.75
2022-09-04T01:14:38.349Z,3.08
2022-09-04T01:17:44.714Z,2.33
2022-09-04T01:20:23.227Z,2.30
2022-09-04T01:23:24.110Z,2.97
2022-09-04T01:25:57.347Z,2.38
2022-09-04T01:29:07.251Z,2.35
2022-09-04T01:31:52.907Z,2.22
2022-09-04T01:34:39.890Z,1.83
2022-09-04T01:37:43.920Z,2.08
2022-09-04T01:40:36.912Z,2.72
2022-09-04T01:43:03.669Z,1.60
2022-09-04T01:45:52.871Z,1.90
2022-09-04T01:48:49.837Z,1.48
2022-09-04T01:51:27.725Z,2.65
2022-09-04T01:54:11.875Z,2.50
2022-09-04T01:56:50.849Z,2.30
2022-09-04T01:59:20.303Z,2.17
2022-09-04T02:02:06.956Z,2.90
2022-09-04T02:05:10.013Z,1.95
2022-09-04T02:07:46.683Z,2.63
2022-09-04T02:10:31.595Z,1.83
2022-09-04T02:13:15.718Z,3.65
2022-09-04T02:16:06.031Z,1.52
2022-09-04T02:18:44.321Z,2.85
2022-09-04T02:21:14.507Z,1.27
2022-09-04T02:23:51.531Z,2.85
2022-09-04T02:26:30.758Z,1.85
2022-09-04T02:29:23.096Z,2.53
2022-09-04T02:32:18.484Z,3.65
2022-09-04T02:34:57.192Z,2.03
2022-09-04T02:37:37.655Z,1.42
2022-09-04T02:40:22.126Z,2.47
2022-09-04T02:43:22.207Z,3.70
2022-09-04T02:45:52.574Z,1.98
2022-09-04T02:48:31.205Z,2.38
2022-09-04T02:51:34.537Z,2.67
2022-09-04T02:54:12.442Z,2.33
2022-09-04T02:56:52.317Z,2.25
2022-09-04T02:59:53.663Z,2.28
2022-09-04T03:02:47.338Z,3.58
2022-09-04T03:05:21.024Z,2.20
2022-09-04T03:08:08.262Z,1.90
2022-09-04T03:10:59.183Z,2.75
2022-09-04T03:13:38.899Z,2.60
2022-09-04T03:16:35.164Z,2.05
2022-09-04T03:19:10.375Z,2.45
2022-09-04T03:21:53.184Z,3.33
2022-09-04T03:24:26.230Z,2.97
2022-09-04T03:27:01.531Z,2.83
2022-09-04T03:29:37.999Z,3.85
2022-09-04T03:32:26.428Z,4.50
2022-09-04T03:35:14.534Z,3.45
2022-09-04T03:38:17.289Z,3.42
2022-09-04T03:40:57.606Z,2.42
2022-09-04T03:44:04.565Z,2.67
2022-09-04T03:47:02.750Z,4.40
2022-09-04T03:50:01.895Z,5.07
2022-09-04T03:52:40.219Z,4.45
2022-09-04T03:55:25.721Z,2.88
2022-09-04T03:58:21.487Z,3.20
2022-09-04T04:01:04.094Z,13.50
2022-09-04T04:03:31.321Z,13.38
2022-09-04T04:06:19.502Z,15.70
2022-09-04T04:09:04.294Z,17.92
2022-09-04T04:11:49.483Z,10.57
2022-09-04T04:14:22.301Z,31.35
2022-09-04T04:17:33.975Z,33.15
2022-09-04T04:20:22.115Z,34.08
2022-09-04T04:23:34.011Z,50.13
2022-09-04T04:26:03.647Z,45.08
2022-09-04T04:28:39.029Z,40.58
2022-09-04T04:31:18.948Z,37.25
2022-09-04T04:34:22.459Z,38.42
2022-09-04T04:37:00.711Z,52.97
2022-09-04T04:39:44.628Z,61.90
2022-09-04T04:42:45.669Z,61.88
2022-09-04T04:45:36.913Z,59.47
2022-09-04T04:48:15.842Z,62.53
2022-09-04T04:51:05.234Z,48.30
2022-09-04T04:53:55.428Z,87.47
2022-09-04T04:56:31.397Z,69.82
2022-09-04T04:59:31.090Z,70.22
2022-09-04T05:02:51.573Z,82.10
2022-09-04T05:05:40.655Z,72.93
2022-09-04T05:08:15.440Z,83.88
2022-09-04T05:10:51.618Z,80.75
2022-09-04T05:13:33.096Z,67.43
2022-09-04T05:16:25.918Z,55.80
2022-09-04T05:19:01.415Z,65.75
2022-09-04T05:22:04.243Z,74.10
2022-09-04T05:24:33.781Z,67.72
2022-09-04T05:27:20.072Z,69.47
2022-09-04T05:30:16.480Z,86.90
2022-09-04T05:33:18.007Z,68.75
2022-09-04T05:36:17.017Z,71.50
2022-09-04T05:39:13.100Z,78.53
2022-09-04T05:41:50.278Z,71.50
2022-09-04T05:44:46.978Z,58.72
2022-09-04T05:47:27.500Z,59.55
2022-09-04T05:50:26.822Z,70.13
2022-09-04T05:53:18.192Z,81.70
2022-09-04T05:56:18.414Z,55.15
2022-09-04T05:58:50.579Z,65.30
2022-09-04T06:01:52.539Z,59.72
2022-09-04T06:04:59.243Z,51.13
2022-09-04T06:08:07.400Z,55.92
2022-09-04T06:10:42.427Z,55.43
2022-09-04T06:13:28.868Z,44.35
2022-09-04T06:16:29.903Z,45.78
2022-09-04T06:19:35.267Z,70.47
2022-09-04T06:22:12.790Z,70.38
2022-09-04T06:24:58.065Z,60.38
2022-09-04T06:27:52.562Z,37.22
2022-09-04T06:30:20.894Z,40.05
2022-09-04T06:33:27.327Z,35.45
2022-09-04T06:36:21.632Z,36.30
2022-09-04T06:39:00.509Z,40.88
2022-09-04T06:41:30.311Z,40.97
2022-09-04T06:44:35.720Z,32.50
2022-09-04T06:47:19.498Z,34.78
2022-09-04T06:50:13.739Z,29.00
2022-09-04T06:53:19.414Z,30.58
2022-09-04T06:56:14.392Z,28.38
2022-09-04T06:59:09.953Z,27.45
2022-09-04T07:01:44.338Z,29.88
2022-09-04T07:04:38.590Z,33.85
2022-09-04T07:07:19.912Z,34.30
2022-09-04T07:10:01.075Z,30.52
2022-09-04T07:12:52.821Z,34.20
2022-09-04T07:15:31.656Z,25.58
2022-09-04T07:18:39.802Z,28.90
2022-09-04T07:21:58.900Z,23.60
2022-09-04T07:24:52.371Z,26.33
2022-09-04T07:27:39.000Z,20.15
2022-09-04T07:30:17.754Z,20.83
2022-09-04T07:32:53.695Z,21.02
2022-09-04T07:35:42.935Z,17.58
2022-09-04T07:38:28.606Z,16.05
2022-09-04T07:41:19.901Z,18.15
2022-09-04T07:44:12.070Z,16.08
2022-09-04T07:47:13.372Z,17.27
2022-09-04T07:49:49.210Z,15.45
2022-09-04T07:52:46.406Z,19.40
2022-09-04T07:55:40.471Z,19.63
2022-09-04T07:58:22.131Z,19.35
2022-09-04T08:01:06.915Z,17.60
2022-09-04T08:04:06.756Z,17.58
2022-09-04T08:06:48.564Z,18.23
2022-09-04T08:09:41.836Z,20.58
2022-09-04T08:12:08.628Z,23.35
2022-09-04T08:14:50.907Z,19.42
2022-09-04T08:17:51.418Z,21.80
2022-09-04T08:20:52.752Z,19.42
2022-09-04T08:23:42.730Z,21.73
2022-09-04T08:26:28.347Z,21.58
2022-09-04T08:29:13.941Z,22.10
2022-09-04T08:31:55.356Z,17.00
2022-09-04T08:34:57.016Z,21.30
2022-09-04T08:37:34.650Z,15.30
2022-09-04T08:40:31.533Z,16.80
2022-09-04T08:43:24.818Z,17.92
2022-09-04T08:46:30.007Z,15.00
2022-09-04T08:49:14.983Z,16.38
2022-09-04T08:52:11.321Z,14.73
2022-09-04T08:54:44.100Z,16.60
2022-09-04T08:57:52.310Z,20.65
2022-09-04T09:00:37.745Z,13.70
2022-09-04T09:03:13.481Z,15.73
2022-09-04T09:06:13.269Z,15.35
2022-09-04T09:09:01.655Z,16.25
2022-09-04T09:11:57.503Z,15.40
2022-09-04T09:14:50.280Z,15.77
2022-09-04T09:17:39.703Z,16.33
2022-09-04T09:20:30.064Z,13.63
2022-09-04T09:23:19.795Z,16.33
2022-09-04T09:25:49.873Z,15.90
2022-09-04T09:28:31.743Z,17.15
2022-09-04T09:31:05.461Z,18.63
2022-09-04T09:33:50.883Z,15.98
2022-09-04T09:36:35.462Z,17.58
2022-09-04T09:39:34.219Z,19.48
2022-09-04T09:42:19.860Z,17.67
2022-09-04T09:44:56.200Z,18.63
2022-09-04T09:47:41.386Z,14.65
2022-09-04T09:50:14.560Z,19.67
2022-09-04T09:53:10.506Z,19.98
2022-09-04T09:56:15.608Z,20.75
2022-09-04T09:59:01.299Z,17.60
2022-09-04T10:01:33.872Z,15.60
2022-09-04T10:04:40.075Z,20.00
2022-09-04T10:07:29.803Z,18.63
2022-09-04T10:10:21.476Z,14.68
2022-09-04T10:12:50.933Z,16.50
2022-09-04T10:15:37.567Z,14.48
2022-09-04T10:18:35.703Z,12.52
2022-09-04T10:21:46.289Z,11.52
2022-09-04T10:24:31.333Z,12.07
2022-09-04T10:27:15.484Z,11.82
2022-09-04T10:30:05.479Z,12.25
2022-09-04T10:32:32.935Z,11.50
2022-09-04T10:35:21.995Z,9.43
2022-09-04T10:38:17.120Z,10.45
2022-09-04T10:41:05.942Z,8.93
2022-09-04T10:44:05.332Z,9.75
2022-09-04T10:46:56.886Z,7.25
2022-09-04T10:49:56.152Z,7.03
2022-09-04T10:52:30.979Z,8.45
2022-09-04T10:55:20.536Z,6.82
2022-09-04T10:58:05.479Z,7.68
2022-09-04T11:00:55.892Z,6.30
2022-09-04T11:03:38.282Z,7.45
2022-09-04T11:06:25.932Z,6.15
2022-09-04T11:09:32.963Z,6.00
2022-09-04T11:12:33.614Z,8.20
2022-09-04T11:15:12.574Z,7.20
2022-09-04T11:18:04.291Z,5.25
2022-09-04T11:20:59.430Z,6.68
2022-09-04T11:23:38.506Z,4.00
2022-09-04T11:26:33.351Z,4.82
2022-09-04T11:29:02.874Z,3.80
2022-09-04T11:32:21.158Z,4.15
2022-09-04T11:35:09.988Z,4.47
2022-09-04T11:37:59.187Z,4.05
2022-09-04T11:41:10.636Z,4.43
2022-09-04T11:43:52.663Z,4.30
2022-09-04T11:46:47.398Z,4.25
2022-09-04T11:49:40.920Z,4.18
2022-09-04T11:52:16.360Z,4.13
2022-09-04T11:55:22.923Z,4.32
2022-09-04T11:58:18.455Z,3.70
2022-09-04T12:01:02.431Z,3.45
2022-09-04T12:03:38.552Z,3.83
2022-09-04T12:06:23.261Z,5.57
2022-09-04T12:09:05.493Z,2.87
2022-09-04T12:12:07.373Z,2.30
2022-09-04T12:14:49.551Z,3.25
2022-09-04T12:17:17.300Z,3.05
2022-09-04T12:20:07.888Z,2.42
2022-09-04T12:23:12.975Z,2.83
2022-09-04T12:26:14.136Z,2.83
2022-09-04T12:28:58.559Z,3.25
2022-09-04T12:32:02.528Z,3.25
2022-09-04T12:34:56.789Z,2.53
2022-09-04T12:37:50.837Z,1.50
2022-09-04T12:40:26.664Z,2.08
2022-09-04T12:43:31.959Z,2.53
2022-09-04T12:46:14.400Z,1.45
2022-09-04T12:49:05.200Z,1.33
2022-09-04T12:51:53.697Z,1.65
2022-09-04T12:54:31.401Z,3.72
2022-09-04T12:57:22.680Z,1.25
2022-09-04T13:00:12.403Z,1.73
2022-09-04T13:03:17.338Z,2.22
2022-09-04T13:06:04.111Z,0.95
2022-09-04T13:08:55.203Z,1.65
2022-09-04T13:11:44.201Z,1.10
2022-09-04T13:14:44.934Z,1.15
2022-09-04T13:17:25.929Z,2.72
2022-09-04T13:20:05.871Z,1.50
2022-09-04T13:22:57.894Z,1.65
2022-09-04T13:25:53.220Z,1.13
2022-09-04T13:28:20.041Z,1.42
2022-09-04T13:31:17.381Z,2.08
2022-09-04T13:34:01.327Z,1.38
2022-09-04T13:36:35.459Z,1.27
2022-09-04T13:39:17.976Z,1.52
2022-09-04T13:42:03.405Z,1.50
2022-09-04T13:44:58.135Z,1.30
2022-09-04T13:47:32.207Z,1.40
2022-09-04T13:50:10.651Z,1.58
2022-09-04T13:53:06.934Z,1.33
2022-09-04T13:55:38.714Z,1.88
2022-09-04T13:58:20.425Z,1.17
2022-09-04T14:00:51.874Z,1.77
2022-09-04T14:03:48.630Z,1.40
2022-09-04T14:06:19.323Z,1.40
2022-09-04T14:08:59.690Z,1.52
2022-09-04T14:11:54.150Z,2.08
2022-09-04T14:14:48.564Z,1.50
2022-09-04T14:17:26.682Z,1.27
2022-09-04T14:20:03.936Z,1.95
2022-09-04T14:22:52.129Z,2.33
2022-09-04T14:25:29.921Z,1.10
2022-09-04T14:28:37.976Z,1.42
2022-09-04T14:31:27.670Z,1.40
2022-09-04T14:34:17.438Z,1.60
2022-09-04T14:36:56.712Z,1.30
2022-09-04T14:39:52.909Z,1.58
2022-09-04T14:43:05.261Z,0.90
2022-09-04T14:46:11.549Z,2.22
2022-09-04T14:48:48.212Z,2.25
2022-09-04T14:51:30.870Z,1.38
2022-09-04T14:53:59.243Z,1.23
2022-09-04T14:56:41.928Z,2.00
2022-09-04T14:59:31.657Z,2.13
2022-09-04T15:02:14.807Z,1.02
2022-09-04T15:05:03.518Z,1.95
2022-09-04T15:07:42.601Z,2.20
2022-09-04T15:10:18.258Z,1.95
2022-09-04T15:13:11.632Z,2.30
2022-09-04T15:15:54.935Z,1.85
2022-09-04T15:18:43.699Z,2.15
2022-09-04T15:21:27.594Z,1.85
2022-09-04T15:24:08.474Z,1.60
2022-09-04T15:26:55.647Z,1.95
2022-09-04T15:29:54.708Z,1.85
2022-09-04T15:32:25.712Z,1.60
2022-09-04T15:35:23.567Z,2.50
2022-09-04T15:38:04.919Z,1.55
2022-09-04T15:40:59.517Z,1.85
2022-09-04T15:43:43.013Z,1.67
2022-09-04T15:46:16.002Z,1.58
2022-09-04T15:49:30.258Z,2.13
2022-09-04T15:52:17.301Z,2.25
2022-09-04T15:54:53.030Z,1.95
2022-09-04T15:57:29.367Z,2.25
2022-09-04T16:00:03.102Z,2.20
2022-09-04T16:02:59.063Z,2.33
2022-09-04T16:05:49.065Z,2.78
2022-09-04T16:08:23.586Z,1.65
2022-09-04T16:11:02.372Z,2.30
2022-09-04T16:13:58.059Z,2.97
2022-09-04T16:16:34.006Z,1.25
2022-09-04T16:22:01.970Z,3.17
2022-09-04T16:24:47.464Z,1.92
2022-09-04T16:27:18.403Z,2.97
2022-09-04T16:29:57.737Z,2.30
2022-09-04T16:32:30.035Z,1.88
2022-09-04T16:35:30.202Z,3.17
2022-09-04T16:39:00.067Z,4.55
2022-09-04T16:41:48.021Z,2.00
2022-09-04T16:44:22.076Z,1.73
2022-09-04T16:47:06.013Z,2.67
2022-09-04T16:49:57.650Z,4.35
2022-09-04T16:52:36.700Z,2.13
2022-09-04T16:55:27.059Z,2.70
2022-09-04T16:58:02.234Z,2.92
2022-09-04T17:00:51.596Z,2.28
2022-09-04T17:03:24.733Z,2.20
2022-09-04T17:05:59.494Z,2.25
2022-09-04T17:08:28.698Z,2.50
2022-09-04T17:11:05.446Z,2.63
2022-09-04T17:13:48.335Z,2.67
2022-09-04T17:16:21.827Z,3.03
2022-09-04T17:18:53.491Z,2.05
2022-09-04T17:27:46.085Z,3.90
2022-09-04T17:29:17.136Z,3.03
2022-09-04T17:29:17.544Z,2.35
2022-09-04T17:30:40.545Z,2.92
2022-09-04T17:38:49.256Z,2.67
2022-09-04T17:40:38.725Z,2.25
2022-09-04T17:40:41.350Z,2.83
2022-09-04T17:42:23.302Z,2.17
2022-09-04T17:45:22.610Z,1.75
2022-09-04T17:48:08.678Z,1.95
2022-09-04T17:50:59.634Z,2.63
2022-09-04T17:53:34.159Z,2.28
2022-09-04T17:56:27.772Z,3.13
2022-09-04T17:59:24.524Z,2.92
2022-09-04T18:01:51.749Z,4.03
2022-09-04T18:04:40.270Z,3.22
2022-09-04T18:07:28.718Z,2.78
2022-09-04T18:10:32.692Z,3.20
2022-09-04T18:13:36.756Z,3.05
2022-09-04T18:16:19.066Z,3.20
2022-09-04T18:19:19.526Z,3.72
2022-09-04T18:22:45.933Z,3.78
2022-09-04T18:25:46.231Z,2.67
2022-09-04T18:28:40.323Z,4.10
2022-09-04T18:37:09.478Z,3.05
2022-09-04T18:37:27.098Z,4.40
2022-09-04T18:37:50.605Z,3.13
2022-09-04T18:40:36.059Z,3.90
2022-09-04T18:50:30.998Z,3.42
2022-09-04T18:50:31.482Z,3.63
2022-09-04T18:50:36.654Z,3.50
2022-09-04T18:52:30.368Z,3.50
2022-09-04T18:55:09.347Z,2.95
2022-09-04T18:58:09.949Z,4.78
2022-09-04T19:00:55.634Z,3.83
2022-09-04T19:03:27.422Z,2.92
2022-09-04T19:06:04.709Z,4.53
2022-09-04T19:08:39.900Z,2.28
2022-09-04T19:11:21.253Z,4.65
2022-09-04T19:14:10.899Z,2.83
2022-09-04T19:16:47.057Z,3.63
2022-09-04T19:19:34.809Z,3.42
2022-09-04T19:24:46.899Z,3.30
2022-09-04T19:27:38.462Z,3.05
2022-09-04T19:30:19.734Z,3.47
2022-09-04T19:32:59.772Z,4.45
2022-09-04T19:35:49.890Z,5.32
2022-09-04T19:45:57.004Z,4.45
2022-09-04T19:46:05.458Z,3.38
2022-09-04T19:46:18.860Z,3.90
2022-09-04T19:47:43.210Z,3.17
2022-09-04T19:53:21.884Z,7.35
2022-09-04T19:53:42.334Z,3.35
2022-09-04T19:56:28.019Z,4.43
2022-09-04T19:59:16.430Z,4.78
2022-09-04T20:02:02.803Z,4.20
2022-09-04T20:04:43.582Z,5.30
2022-09-04T20:07:20.704Z,3.90
2022-09-04T20:09:54.861Z,3.30
2022-09-04T20:12:36.719Z,4.00
2022-09-04T20:15:22.271Z,3.60
2022-09-04T20:18:11.772Z,3.97
2022-09-04T20:20:54.769Z,4.07
2022-09-04T20:23:40.219Z,5.97
2022-09-04T20:26:45.260Z,4.20
2022-09-04T20:29:20.884Z,3.25
2022-09-04T20:31:56.060Z,4.53
2022-09-04T20:34:38.821Z,3.83
2022-09-04T20:37:37.485Z,5.72
2022-09-04T20:40:21.993Z,4.72
2022-09-04T20:43:02.759Z,4.10
2022-09-04T20:47:27.950Z,5.25
2022-09-04T20:52:52.043Z,4.35
2022-09-04T20:53:00.570Z,4.68
2022-09-04T20:54:37.359Z,4.55
2022-09-04T20:59:29.533Z,4.38
2022-09-04T21:03:19.147Z,4.03
2022-09-04T21:03:27.953Z,3.72
2022-09-04T21:06:07.273Z,4.45
2022-09-04T21:09:05.312Z,3.55
2022-09-04T21:11:41.928Z,4.82
2022-09-04T21:14:16.696Z,4.38
2022-09-04T21:17:33.369Z,4.63
2022-09-04T21:20:50.325Z,6.78
2022-09-04T21:24:21.880Z,6.05
2022-09-04T21:27:10.649Z,4.13
2022-09-04T21:29:59.306Z,5.97
2022-09-04T21:32:40.230Z,5.22
2022-09-04T21:35:25.078Z,4.32
2022-09-04T21:38:14.539Z,6.30
2022-09-04T21:40:58.952Z,5.68
2022-09-04T21:43:40.335Z,6.70
2022-09-04T21:46:35.718Z,4.30
2022-09-04T21:49:29.591Z,5.75
2022-09-04T21:52:08.191Z,4.22
2022-09-04T21:58:58.600Z,5.18
2022-09-04T22:02:28.188Z,3.60
2022-09-04T22:02:37.306Z,4.05
2022-09-04T22:03:34.609Z,6.07
2022-09-04T22:06:04.482Z,4.68
2022-09-04T22:13:37.958Z,5.18
2022-09-04T22:13:45.995Z,5.30
2022-09-04T22:15:06.536Z,5.03
2022-09-04T22:17:53.526Z,4.50
2022-09-04T22:20:43.550Z,6.30
2022-09-04T22:23:38.215Z,4.78
2022-09-04T22:26:26.915Z,5.30
2022-09-04T22:29:14.970Z,6.43
2022-09-04T22:32:20.210Z,4.50
2022-09-04T22:35:25.244Z,5.80
2022-09-04T22:38:26.364Z,4.85
2022-09-04T22:41:02.065Z,6.82
2022-09-04T22:43:46.638Z,5.18
2022-09-04T22:46:38.303Z,4.60
2022-09-04T22:49:24.040Z,5.15
2022-09-04T22:52:15.117Z,6.18
2022-09-04T22:54:50.857Z,4.95
2022-09-04T22:57:44.704Z,4.25
2022-09-04T23:00:21.070Z,5.38
2022-09-04T23:03:09.264Z,5.28
2022-09-04T23:05:48.975Z,4.78
2022-09-04T23:13:51.606Z,4.22
2022-09-04T23:14:02.501Z,5.13
2022-09-04T23:15:28.970Z,6.95
2022-09-04T23:19:37.792Z,5.60
2022-09-04T23:26:41.493Z,6.00
2022-09-04T23:26:45.502Z,4.32
2022-09-04T23:27:56.948Z,6.55
2022-09-04T23:30:26.527Z,5.50
2022-09-04T23:33:32.999Z,5.55
2022-09-04T23:36:18.080Z,8.43
2022-09-04T23:39:24.016Z,5.35
2022-09-04T23:42:11.553Z,4.70
2022-09-04T23:44:57.032Z,5.25
2022-09-04T23:47:48.214Z,5.97
2022-09-04T23:50:54.706Z,5.50
2022-09-04T23:53:43.056Z,5.78
2022-09-04T23:56:26.368Z,6.97
2022-09-04T23:59:21.331Z,4.40
